sensor_id;sensor_type;location;lat;lon;timestamp;pressure;altitude;pressure_sealevel;temperature;humidity
65276;BME280;51875;49.994;14.052;2024-01-10T00:00:08;99780.66;;;-11.01;100.00
65276;BME280;51875;49.994;14.052;2024-01-10T00:01:24;99787.47;;;-11.00;100.00
65276;BME280;51875;49.994;14.052;2024-01-10T00:02:42;99778.69;;;-11.15;100.00
65276;BME280;51875;49.994;14.052;2024-01-10T00:03:58;99778.06;;;-11.23;100.00
65276;BME280;51875;49.994;14.052;2024-01-10T00:05:14;99782.34;;;-11.22;100.00
65276;BME280;51875;49.994;14.052;2024-01-10T00:06:30;99775.38;;;-11.14;100.00
65276;BME280;51875;49.994;14.052;2024-01-10T00:07:47;99771.34;;;-11.23;100.00
65276;BME280;51875;49.994;14.052;2024-01-10T00:09:03;99773.22;;;-11.10;100.00
65276;BME280;51875;49.994;14.052;2024-01-10T00:10:19;99772.19;;;-11.12;100.00
65276;BME280;51875;49.994;14.052;2024-01-10T00:11:37;99770.22;;;-10.83;100.00
65276;BME280;51875;49.994;14.052;2024-01-10T00:12:53;99762.81;;;-11.02;100.00
65276;BME280;51875;49.994;14.052;2024-01-10T00:14:09;99761.94;;;-11.03;100.00
65276;BME280;51875;49.994;14.052;2024-01-10T00:15:26;99764.59;;;-11.01;100.00
65276;BME280;51875;49.994;14.052;2024-01-10T00:16:42;99766.91;;;-11.25;100.00
65276;BME280;51875;49.994;14.052;2024-01-10T00:17:58;99762.13;;;-11.22;100.00
65276;BME280;51875;49.994;14.052;2024-01-10T00:19:14;99763.50;;;-11.15;100.00
65276;BME280;51875;49.994;14.052;2024-01-10T00:20:30;99759.50;;;-11.34;100.00
65276;BME280;51875;49.994;14.052;2024-01-10T00:21:46;99754.88;;;-11.17;100.00
65276;BME280;51875;49.994;14.052;2024-01-10T00:23:02;99761.78;;;-11.37;100.00
65276;BME280;51875;49.994;14.052;2024-01-10T00:24:19;99763.81;;;-11.43;100.00
65276;BME280;51875;49.994;14.052;2024-01-10T00:25:35;99760.38;;;-11.23;100.00
65276;BME280;51875;49.994;14.052;2024-01-10T00:26:51;99763.00;;;-11.32;100.00
65276;BME280;51875;49.994;14.052;2024-01-10T00:28:07;99759.00;;;-11.30;100.00
65276;BME280;51875;49.994;14.052;2024-01-10T00:29:23;99757.38;;;-11.07;100.00
65276;BME280;51875;49.994;14.052;2024-01-10T00:30:39;99758.91;;;-11.09;100.00
65276;BME280;51875;49.994;14.052;2024-01-10T00:31:55;99759.69;;;-11.10;100.00
65276;BME280;51875;49.994;14.052;2024-01-10T00:33:15;99760.44;;;-11.11;100.00
65276;BME280;51875;49.994;14.052;2024-01-10T00:34:31;99757.31;;;-11.19;100.00
65276;BME280;51875;49.994;14.052;2024-01-10T00:35:47;99761.81;;;-11.04;100.00
65276;BME280;51875;49.994;14.052;2024-01-10T00:37:03;99767.75;;;-11.04;100.00
65276;BME280;51875;49.994;14.052;2024-01-10T00:38:19;99757.91;;;-11.01;100.00
65276;BME280;51875;49.994;14.052;2024-01-10T00:39:35;99759.88;;;-10.97;100.00
65276;BME280;51875;49.994;14.052;2024-01-10T00:40:51;99756.47;;;-10.97;100.00
65276;BME280;51875;49.994;14.052;2024-01-10T00:42:07;99752.25;;;-11.19;100.00
65276;BME280;51875;49.994;14.052;2024-01-10T00:43:23;99761.31;;;-11.43;100.00
65276;BME280;51875;49.994;14.052;2024-01-10T00:44:39;99757.72;;;-11.35;100.00
65276;BME280;51875;49.994;14.052;2024-01-10T00:45:55;99753.94;;;-11.30;100.00
65276;BME280;51875;49.994;14.052;2024-01-10T00:47:11;99759.66;;;-11.53;100.00
65276;BME280;51875;49.994;14.052;2024-01-10T00:48:27;99755.59;;;-11.41;100.00
65276;BME280;51875;49.994;14.052;2024-01-10T00:49:43;99765.31;;;-11.45;100.00
65276;BME280;51875;49.994;14.052;2024-01-10T00:50:59;99761.25;;;-11.33;100.00
65276;BME280;51875;49.994;14.052;2024-01-10T00:52:15;99760.16;;;-11.37;100.00
65276;BME280;51875;49.994;14.052;2024-01-10T00:53:31;99766.22;;;-11.35;100.00
65276;BME280;51875;49.994;14.052;2024-01-10T00:54:47;99766.59;;;-11.30;100.00
65276;BME280;51875;49.994;14.052;2024-01-10T00:56:04;99764.69;;;-11.32;100.00
65276;BME280;51875;49.994;14.052;2024-01-10T00:57:20;99770.66;;;-11.42;100.00
65276;BME280;51875;49.994;14.052;2024-01-10T00:58:36;99764.84;;;-11.52;100.00
65276;BME280;51875;49.994;14.052;2024-01-10T00:59:52;99768.59;;;-11.46;100.00
65276;BME280;51875;49.994;14.052;2024-01-10T01:01:08;99773.19;;;-11.53;100.00
65276;BME280;51875;49.994;14.052;2024-01-10T01:02:24;99765.84;;;-11.50;100.00
65276;BME280;51875;49.994;14.052;2024-01-10T01:03:40;99767.38;;;-11.52;100.00
65276;BME280;51875;49.994;14.052;2024-01-10T01:04:56;99768.38;;;-11.60;100.00
65276;BME280;51875;49.994;14.052;2024-01-10T01:06:12;99766.88;;;-11.68;100.00
65276;BME280;51875;49.994;14.052;2024-01-10T01:07:28;99768.41;;;-11.81;100.00
65276;BME280;51875;49.994;14.052;2024-01-10T01:08:44;99772.31;;;-11.84;100.00
65276;BME280;51875;49.994;14.052;2024-01-10T01:10:00;99767.50;;;-11.71;100.00
65276;BME280;51875;49.994;14.052;2024-01-10T01:11:16;99771.41;;;-11.64;100.00
65276;BME280;51875;49.994;14.052;2024-01-10T01:12:32;99775.72;;;-11.53;100.00
65276;BME280;51875;49.994;14.052;2024-01-10T01:13:48;99773.28;;;-11.41;100.00
65276;BME280;51875;49.994;14.052;2024-01-10T01:15:05;99783.16;;;-11.44;100.00
65276;BME280;51875;49.994;14.052;2024-01-10T01:16:21;99777.22;;;-11.44;100.00
65276;BME280;51875;49.994;14.052;2024-01-10T01:17:37;99773.03;;;-11.44;100.00
65276;BME280;51875;49.994;14.052;2024-01-10T01:18:53;99772.41;;;-11.31;100.00
65276;BME280;51875;49.994;14.052;2024-01-10T01:20:09;99775.03;;;-11.29;100.00
65276;BME280;51875;49.994;14.052;2024-01-10T01:21:26;99774.25;;;-11.28;100.00
65276;BME280;51875;49.994;14.052;2024-01-10T01:22:42;99772.94;;;-11.56;100.00
65276;BME280;51875;49.994;14.052;2024-01-10T01:23:58;99771.41;;;-11.43;100.00
65276;BME280;51875;49.994;14.052;2024-01-10T01:25:14;99765.69;;;-11.41;100.00
65276;BME280;51875;49.994;14.052;2024-01-10T01:26:30;99766.97;;;-11.36;100.00
65276;BME280;51875;49.994;14.052;2024-01-10T01:27:46;99771.38;;;-11.33;100.00
65276;BME280;51875;49.994;14.052;2024-01-10T01:29:02;99764.97;;;-11.50;100.00
65276;BME280;51875;49.994;14.052;2024-01-10T01:30:18;99769.88;;;-11.52;100.00
65276;BME280;51875;49.994;14.052;2024-01-10T01:31:35;99765.19;;;-11.37;100.00
65276;BME280;51875;49.994;14.052;2024-01-10T01:32:51;99768.81;;;-11.23;100.00
65276;BME280;51875;49.994;14.052;2024-01-10T01:34:08;99765.22;;;-11.47;100.00
65276;BME280;51875;49.994;14.052;2024-01-10T01:35:24;99764.84;;;-11.52;100.00
65276;BME280;51875;49.994;14.052;2024-01-10T01:36:40;99763.53;;;-11.36;100.00
65276;BME280;51875;49.994;14.052;2024-01-10T01:37:56;99757.34;;;-11.29;100.00
65276;BME280;51875;49.994;14.052;2024-01-10T01:39:13;99763.22;;;-11.51;100.00
65276;BME280;51875;49.994;14.052;2024-01-10T01:40:29;99764.44;;;-11.46;100.00
65276;BME280;51875;49.994;14.052;2024-01-10T01:41:45;99764.59;;;-11.44;100.00
65276;BME280;51875;49.994;14.052;2024-01-10T01:43:01;99761.53;;;-11.40;100.00
65276;BME280;51875;49.994;14.052;2024-01-10T01:44:18;99758.78;;;-11.43;100.00
65276;BME280;51875;49.994;14.052;2024-01-10T01:45:34;99758.63;;;-11.35;100.00
65276;BME280;51875;49.994;14.052;2024-01-10T01:46:50;99756.59;;;-11.39;100.00
65276;BME280;51875;49.994;14.052;2024-01-10T01:48:06;99757.34;;;-11.29;100.00
65276;BME280;51875;49.994;14.052;2024-01-10T01:49:22;99759.88;;;-11.40;100.00
65276;BME280;51875;49.994;14.052;2024-01-10T01:50:40;99761.53;;;-11.40;100.00
65276;BME280;51875;49.994;14.052;2024-01-10T01:51:57;99761.44;;;-11.52;100.00
65276;BME280;51875;49.994;14.052;2024-01-10T01:53:13;99761.06;;;-11.57;100.00
65276;BME280;51875;49.994;14.052;2024-01-10T01:54:31;99761.00;;;-11.36;100.00
65276;BME280;51875;49.994;14.052;2024-01-10T01:55:49;99754.56;;;-11.32;100.00
65276;BME280;51875;49.994;14.052;2024-01-10T01:57:05;99750.50;;;-11.30;100.00
65276;BME280;51875;49.994;14.052;2024-01-10T01:58:23;99750.25;;;-11.23;100.00
65276;BME280;51875;49.994;14.052;2024-01-10T01:59:39;99754.88;;;-11.17;100.00
65276;BME280;51875;49.994;14.052;2024-01-10T02:00:55;99754.66;;;-11.21;100.00
65276;BME280;51875;49.994;14.052;2024-01-10T02:02:12;99756.91;;;-11.13;100.00
65276;BME280;51875;49.994;14.052;2024-01-10T02:03:33;99757.03;;;-11.12;100.00
65276;BME280;51875;49.994;14.052;2024-01-10T02:04:49;99751.88;;;-11.24;100.00
65276;BME280;51875;49.994;14.052;2024-01-10T02:06:05;99757.53;;;-11.59;100.00
65276;BME280;51875;49.994;14.052;2024-01-10T02:07:22;99758.47;;;-11.36;100.00
65276;BME280;51875;49.994;14.052;2024-01-10T02:08:38;99755.41;;;-11.22;100.00
65276;BME280;51875;49.994;14.052;2024-01-10T02:09:54;99749.50;;;-11.22;100.00
65276;BME280;51875;49.994;14.052;2024-01-10T02:11:10;99750.75;;;-11.27;100.00
65276;BME280;51875;49.994;14.052;2024-01-10T02:12:26;99748.00;;;-11.41;100.00
65276;BME280;51875;49.994;14.052;2024-01-10T02:13:43;99744.38;;;-11.55;100.00
65276;BME280;51875;49.994;14.052;2024-01-10T02:14:59;99749.53;;;-11.43;100.00
65276;BME280;51875;49.994;14.052;2024-01-10T02:16:15;99748.13;;;-11.39;100.00
65276;BME280;51875;49.994;14.052;2024-01-10T02:17:31;99746.91;;;-11.44;100.00
65276;BME280;51875;49.994;14.052;2024-01-10T02:18:47;99743.06;;;-11.29;100.00
65276;BME280;51875;49.994;14.052;2024-01-10T02:20:14;99746.59;;;-11.27;100.00
65276;BME280;51875;49.994;14.052;2024-01-10T02:21:34;99744.44;;;-11.22;100.00
65276;BME280;51875;49.994;14.052;2024-01-10T02:22:50;99745.91;;;-11.14;100.00
65276;BME280;51875;49.994;14.052;2024-01-10T02:24:06;99746.59;;;-11.37;100.00
65276;BME280;51875;49.994;14.052;2024-01-10T02:25:22;99753.66;;;-11.33;100.00
65276;BME280;51875;49.994;14.052;2024-01-10T02:26:39;99751.03;;;-11.35;100.00
65276;BME280;51875;49.994;14.052;2024-01-10T02:27:55;99751.69;;;-11.47;100.00
65276;BME280;51875;49.994;14.052;2024-01-10T02:29:11;99752.97;;;-11.53;100.00
65276;BME280;51875;49.994;14.052;2024-01-10T02:30:27;99747.38;;;-11.38;100.00
65276;BME280;51875;49.994;14.052;2024-01-10T02:31:44;99749.38;;;-11.34;100.00
65276;BME280;51875;49.994;14.052;2024-01-10T02:33:00;99747.13;;;-11.31;100.00
65276;BME280;51875;49.994;14.052;2024-01-10T02:34:16;99742.66;;;-11.23;100.00
65276;BME280;51875;49.994;14.052;2024-01-10T02:35:32;99740.63;;;-11.27;100.00
65276;BME280;51875;49.994;14.052;2024-01-10T02:36:49;99745.44;;;-11.20;100.00
65276;BME280;51875;49.994;14.052;2024-01-10T02:38:05;99739.63;;;-11.29;100.00
65276;BME280;51875;49.994;14.052;2024-01-10T02:39:21;99739.25;;;-11.34;100.00
65276;BME280;51875;49.994;14.052;2024-01-10T02:40:37;99737.88;;;-11.41;100.00
65276;BME280;51875;49.994;14.052;2024-01-10T02:41:53;99735.25;;;-11.42;100.00
65276;BME280;51875;49.994;14.052;2024-01-10T02:43:09;99739.25;;;-11.34;100.00
65276;BME280;51875;49.994;14.052;2024-01-10T02:44:25;99740.69;;;-11.38;100.00
65276;BME280;51875;49.994;14.052;2024-01-10T02:45:41;99740.53;;;-11.29;100.00
65276;BME280;51875;49.994;14.052;2024-01-10T02:46:59;99736.25;;;-11.30;100.00
65276;BME280;51875;49.994;14.052;2024-01-10T02:48:15;99733.19;;;-11.26;100.00
65276;BME280;51875;49.994;14.052;2024-01-10T02:49:31;99728.31;;;-11.45;100.00
65276;BME280;51875;49.994;14.052;2024-01-10T02:50:47;99728.75;;;-11.71;100.00
65276;BME280;51875;49.994;14.052;2024-01-10T02:52:03;99736.56;;;-11.68;100.00
65276;BME280;51875;49.994;14.052;2024-01-10T02:53:19;99735.81;;;-11.67;100.00
65276;BME280;51875;49.994;14.052;2024-01-10T02:54:35;99730.28;;;-11.84;100.00
65276;BME280;51875;49.994;14.052;2024-01-10T02:55:51;99731.75;;;-11.55;100.00
65276;BME280;51875;49.994;14.052;2024-01-10T02:57:07;99729.75;;;-11.59;100.00
65276;BME280;51875;49.994;14.052;2024-01-10T02:58:23;99726.31;;;-11.49;100.00
65276;BME280;51875;49.994;14.052;2024-01-10T02:59:41;99725.63;;;-11.36;100.00
65276;BME280;51875;49.994;14.052;2024-01-10T03:00:57;99723.38;;;-11.43;100.00
65276;BME280;51875;49.994;14.052;2024-01-10T03:02:14;99724.88;;;-11.45;100.00
65276;BME280;51875;49.994;14.052;2024-01-10T03:03:30;99722.19;;;-11.26;100.00
65276;BME280;51875;49.994;14.052;2024-01-10T03:04:47;99723.50;;;-11.42;100.00
65276;BME280;51875;49.994;14.052;2024-01-10T03:06:03;99722.47;;;-11.33;100.00
65276;BME280;51875;49.994;14.052;2024-01-10T03:07:20;99720.16;;;-11.20;100.00
65276;BME280;51875;49.994;14.052;2024-01-10T03:08:36;99718.06;;;-11.46;100.00
65276;BME280;51875;49.994;14.052;2024-01-10T03:09:52;99708.53;;;-11.28;100.00
65276;BME280;51875;49.994;14.052;2024-01-10T03:11:08;99709.13;;;-11.21;100.00
65276;BME280;51875;49.994;14.052;2024-01-10T03:12:24;99704.66;;;-11.45;100.00
65276;BME280;51875;49.994;14.052;2024-01-10T03:13:40;99704.38;;;-11.28;100.00
65276;BME280;51875;49.994;14.052;2024-01-10T03:14:56;99713.81;;;-11.25;100.00
65276;BME280;51875;49.994;14.052;2024-01-10T03:16:12;99703.47;;;-11.28;100.00
65276;BME280;51875;49.994;14.052;2024-01-10T03:17:28;99704.38;;;-11.28;100.00
65276;BME280;51875;49.994;14.052;2024-01-10T03:18:44;99704.38;;;-11.28;100.00
65276;BME280;51875;49.994;14.052;2024-01-10T03:20:02;99704.34;;;-11.60;100.00
65276;BME280;51875;49.994;14.052;2024-01-10T03:21:19;99700.66;;;-11.64;100.00
65276;BME280;51875;49.994;14.052;2024-01-10T03:22:40;99693.31;;;-11.51;100.00
65276;BME280;51875;49.994;14.052;2024-01-10T03:23:57;99703.25;;;-11.31;100.00
65276;BME280;51875;49.994;14.052;2024-01-10T03:25:13;99698.88;;;-11.55;100.00
65276;BME280;51875;49.994;14.052;2024-01-10T03:26:29;99697.59;;;-11.50;100.00
65276;BME280;51875;49.994;14.052;2024-01-10T03:27:46;99696.59;;;-11.41;100.00
65276;BME280;51875;49.994;14.052;2024-01-10T03:29:02;99695.91;;;-11.39;100.00
65276;BME280;51875;49.994;14.052;2024-01-10T03:30:18;99693.75;;;-11.34;100.00
65276;BME280;51875;49.994;14.052;2024-01-10T03:31:35;99699.41;;;-11.26;100.00
65276;BME280;51875;49.994;14.052;2024-01-10T03:32:51;99697.50;;;-11.18;100.00
65276;BME280;51875;49.994;14.052;2024-01-10T03:34:07;99698.25;;;-11.19;100.00
65276;BME280;51875;49.994;14.052;2024-01-10T03:35:23;99690.28;;;-11.14;100.00
65276;BME280;51875;49.994;14.052;2024-01-10T03:36:39;99694.72;;;-11.22;100.00
65276;BME280;51875;49.994;14.052;2024-01-10T03:37:55;99688.16;;;-11.19;100.00
65276;BME280;51875;49.994;14.052;2024-01-10T03:39:11;99696.50;;;-11.21;100.00
65276;BME280;51875;49.994;14.052;2024-01-10T03:40:27;99688.41;;;-11.16;100.00
65276;BME280;51875;49.994;14.052;2024-01-10T03:41:43;99696.56;;;-11.31;100.00
65276;BME280;51875;49.994;14.052;2024-01-10T03:42:59;99692.19;;;-11.22;100.00
65276;BME280;51875;49.994;14.052;2024-01-10T03:44:15;99698.38;;;-11.51;100.00
65276;BME280;51875;49.994;14.052;2024-01-10T03:45:31;99695.78;;;-11.30;100.00
65276;BME280;51875;49.994;14.052;2024-01-10T03:46:47;99698.56;;;-11.27;100.00
65276;BME280;51875;49.994;14.052;2024-01-10T03:48:04;99689.50;;;-11.13;100.00
65276;BME280;51875;49.994;14.052;2024-01-10T03:49:20;99693.94;;;-11.10;100.00
65276;BME280;51875;49.994;14.052;2024-01-10T03:50:36;99699.00;;;-11.10;100.00
65276;BME280;51875;49.994;14.052;2024-01-10T03:51:52;99692.16;;;-11.11;100.00
65276;BME280;51875;49.994;14.052;2024-01-10T03:53:08;99696.56;;;-11.31;100.00
65276;BME280;51875;49.994;14.052;2024-01-10T03:54:24;99695.78;;;-11.30;100.00
65276;BME280;51875;49.994;14.052;2024-01-10T03:55:40;99701.72;;;-11.29;100.00
65276;BME280;51875;49.994;14.052;2024-01-10T03:56:56;99703.25;;;-11.31;100.00
65276;BME280;51875;49.994;14.052;2024-01-10T03:58:12;99704.13;;;-11.31;100.00
65276;BME280;51875;49.994;14.052;2024-01-10T03:59:28;99700.34;;;-11.36;100.00
65276;BME280;51875;49.994;14.052;2024-01-10T04:00:44;99704.59;;;-11.25;100.00
65276;BME280;51875;49.994;14.052;2024-01-10T04:02:00;99699.88;;;-11.42;100.00
65276;BME280;51875;49.994;14.052;2024-01-10T04:03:17;99702.13;;;-11.45;100.00
65276;BME280;51875;49.994;14.052;2024-01-10T04:04:37;99697.06;;;-11.35;100.00
65276;BME280;51875;49.994;14.052;2024-01-10T04:05:53;99697.13;;;-11.56;100.00
65276;BME280;51875;49.994;14.052;2024-01-10T04:07:09;99697.59;;;-11.39;100.00
65276;BME280;51875;49.994;14.052;2024-01-10T04:08:25;99693.75;;;-11.34;100.00
65276;BME280;51875;49.994;14.052;2024-01-10T04:09:41;99693.38;;;-11.39;100.00
65276;BME280;51875;49.994;14.052;2024-01-10T04:10:59;99697.56;;;-11.29;100.00
65276;BME280;51875;49.994;14.052;2024-01-10T04:12:15;99704.22;;;-11.19;100.00
65276;BME280;51875;49.994;14.052;2024-01-10T04:13:31;99691.94;;;-11.14;100.00
65276;BME280;51875;49.994;14.052;2024-01-10T04:14:47;99698.16;;;-11.21;100.00
65276;BME280;51875;49.994;14.052;2024-01-10T04:16:03;99706.34;;;-11.13;100.00
65276;BME280;51875;49.994;14.052;2024-01-10T04:17:20;99696.50;;;-11.21;100.00
65276;BME280;51875;49.994;14.052;2024-01-10T04:18:36;99705.41;;;-11.36;100.00
65276;BME280;51875;49.994;14.052;2024-01-10T04:19:52;99696.66;;;-11.29;100.00
65276;BME280;51875;49.994;14.052;2024-01-10T04:21:08;99698.06;;;-11.33;100.00
65276;BME280;51875;49.994;14.052;2024-01-10T04:22:24;99692.50;;;-11.29;100.00
65276;BME280;51875;49.994;14.052;2024-01-10T04:23:40;99691.13;;;-11.36;100.00
65276;BME280;51875;49.994;14.052;2024-01-10T04:24:57;99694.16;;;-11.40;100.00
65276;BME280;51875;49.994;14.052;2024-01-10T04:26:14;99691.13;;;-11.36;100.00
65276;BME280;51875;49.994;14.052;2024-01-10T04:27:30;99695.91;;;-11.28;100.00
65276;BME280;51875;49.994;14.052;2024-01-10T04:28:46;99701.19;;;-11.25;100.00
65276;BME280;51875;49.994;14.052;2024-01-10T04:30:02;99691.97;;;-11.25;100.00
65276;BME280;51875;49.994;14.052;2024-01-10T04:31:18;99698.59;;;-11.37;100.00
65276;BME280;51875;49.994;14.052;2024-01-10T04:32:34;99696.06;;;-11.37;100.00
65276;BME280;51875;49.994;14.052;2024-01-10T04:33:50;99694.66;;;-11.33;100.00
65276;BME280;51875;49.994;14.052;2024-01-10T04:35:07;99697.94;;;-11.35;100.00
65276;BME280;51875;49.994;14.052;2024-01-10T04:36:22;99699.41;;;-11.26;100.00
65276;BME280;51875;49.994;14.052;2024-01-10T04:37:39;99691.06;;;-11.25;100.00
65276;BME280;51875;49.994;14.052;2024-01-10T04:38:54;99687.28;;;-11.20;100.00
65276;BME280;51875;49.994;14.052;2024-01-10T04:40:11;99696.56;;;-11.31;100.00
65276;BME280;51875;49.994;14.052;2024-01-10T04:41:27;99696.03;;;-11.27;100.00
65276;BME280;51875;49.994;14.052;2024-01-10T04:42:43;99688.84;;;-11.32;100.00
65276;BME280;51875;49.994;14.052;2024-01-10T04:44:00;99688.22;;;-11.30;100.00
65276;BME280;51875;49.994;14.052;2024-01-10T04:45:16;99689.38;;;-11.37;100.00
65276;BME280;51875;49.994;14.052;2024-01-10T04:46:32;99687.31;;;-11.30;100.00
65276;BME280;51875;49.994;14.052;2024-01-10T04:47:49;99686.47;;;-11.41;100.00
65276;BME280;51875;49.994;14.052;2024-01-10T04:49:05;99682.94;;;-11.43;100.00
65276;BME280;51875;49.994;14.052;2024-01-10T04:50:21;99685.06;;;-11.38;100.00
65276;BME280;51875;49.994;14.052;2024-01-10T04:51:37;99684.19;;;-11.38;100.00
65276;BME280;51875;49.994;14.052;2024-01-10T04:52:53;99691.59;;;-11.29;100.00
65276;BME280;51875;49.994;14.052;2024-01-10T04:54:09;99690.63;;;-11.42;100.00
65276;BME280;51875;49.994;14.052;2024-01-10T04:55:25;99688.63;;;-11.46;100.00
65276;BME280;51875;49.994;14.052;2024-01-10T04:56:41;99686.34;;;-11.43;100.00
65276;BME280;51875;49.994;14.052;2024-01-10T04:57:57;99683.41;;;-11.37;100.00
65276;BME280;51875;49.994;14.052;2024-01-10T04:59:14;99682.44;;;-11.50;100.00
65276;BME280;51875;49.994;14.052;2024-01-10T05:00:30;99679.28;;;-11.47;100.00
65276;BME280;51875;49.994;14.052;2024-01-10T05:01:46;99681.41;;;-11.41;100.00
65276;BME280;51875;49.994;14.052;2024-01-10T05:03:02;99676.38;;;-11.41;100.00
65276;BME280;51875;49.994;14.052;2024-01-10T05:04:18;99677.00;;;-11.44;100.00
65276;BME280;51875;49.994;14.052;2024-01-10T05:05:34;99681.25;;;-11.32;100.00
65276;BME280;51875;49.994;14.052;2024-01-10T05:06:50;99685.34;;;-11.45;100.00
65276;BME280;51875;49.994;14.052;2024-01-10T05:08:06;99682.34;;;-11.51;100.00
65276;BME280;51875;49.994;14.052;2024-01-10T05:09:22;99685.47;;;-11.43;100.00
65276;BME280;51875;49.994;14.052;2024-01-10T05:10:38;99690.59;;;-11.31;100.00
65276;BME280;51875;49.994;14.052;2024-01-10T05:11:54;99686.19;;;-11.34;100.00
65276;BME280;51875;49.994;14.052;2024-01-10T05:13:10;99684.72;;;-11.42;100.00
65276;BME280;51875;49.994;14.052;2024-01-10T05:14:26;99686.63;;;-11.50;100.00
65276;BME280;51875;49.994;14.052;2024-01-10T05:15:42;99686.94;;;-11.35;100.00
65276;BME280;51875;49.994;14.052;2024-01-10T05:16:58;99690.38;;;-11.45;100.00
65276;BME280;51875;49.994;14.052;2024-01-10T05:18:16;99695.53;;;-11.33;100.00
65276;BME280;51875;49.994;14.052;2024-01-10T05:19:32;99689.59;;;-11.33;100.00
65276;BME280;51875;49.994;14.052;2024-01-10T05:20:48;99694.75;;;-11.32;100.00
65276;BME280;51875;49.994;14.052;2024-01-10T05:22:04;99700.63;;;-11.43;100.00
65276;BME280;51875;49.994;14.052;2024-01-10T05:23:20;99693.81;;;-11.44;100.00
65276;BME280;51875;49.994;14.052;2024-01-10T05:24:36;99707.38;;;-11.65;100.00
65276;BME280;51875;49.994;14.052;2024-01-10T05:25:53;99691.53;;;-11.41;100.00
65276;BME280;51875;49.994;14.052;2024-01-10T05:27:09;99695.06;;;-11.39;100.00
65276;BME280;51875;49.994;14.052;2024-01-10T05:28:25;99695.19;;;-11.38;100.00
65276;BME280;51875;49.994;14.052;2024-01-10T05:29:41;99700.16;;;-11.60;100.00
65276;BME280;51875;49.994;14.052;2024-01-10T05:30:58;99694.03;;;-11.31;100.00
65276;BME280;51875;49.994;14.052;2024-01-10T05:32:14;99696.88;;;-11.26;100.00
65276;BME280;51875;49.994;14.052;2024-01-10T05:33:30;99694.50;;;-11.25;100.00
65276;BME280;51875;49.994;14.052;2024-01-10T05:34:46;99691.66;;;-11.17;100.00
65276;BME280;51875;49.994;14.052;2024-01-10T05:36:04;99694.53;;;-11.45;100.00
65276;BME280;51875;49.994;14.052;2024-01-10T05:37:20;99688.97;;;-11.31;100.00
65276;BME280;51875;49.994;14.052;2024-01-10T05:38:38;99693.59;;;-11.25;100.00
65276;BME280;51875;49.994;14.052;2024-01-10T05:39:54;99690.78;;;-11.51;100.00
65276;BME280;51875;49.994;14.052;2024-01-10T05:41:10;99687.38;;;-11.18;100.00
65276;BME280;51875;49.994;14.052;2024-01-10T05:42:26;99690.81;;;-11.18;100.00
65276;BME280;51875;49.994;14.052;2024-01-10T05:43:42;99696.41;;;-11.22;100.00
65276;BME280;51875;49.994;14.052;2024-01-10T05:45:00;99691.06;;;-11.58;100.00
65276;BME280;51875;49.994;14.052;2024-01-10T05:46:17;99693.13;;;-11.31;100.00
65276;BME280;51875;49.994;14.052;2024-01-10T05:47:35;99691.50;;;-11.31;100.00
65276;BME280;51875;49.994;14.052;2024-01-10T05:48:51;99693.59;;;-11.25;100.00
65276;BME280;51875;49.994;14.052;2024-01-10T05:50:07;99698.19;;;-11.31;100.00
65276;BME280;51875;49.994;14.052;2024-01-10T05:51:24;99695.63;;;-11.21;100.00
65276;BME280;51875;49.994;14.052;2024-01-10T05:52:40;99698.66;;;-11.25;100.00
65276;BME280;51875;49.994;14.052;2024-01-10T05:53:56;99690.22;;;-11.26;100.00
65276;BME280;51875;49.994;14.052;2024-01-10T05:55:12;99697.06;;;-11.35;100.00
65276;BME280;51875;49.994;14.052;2024-01-10T05:56:28;99693.72;;;-11.24;100.00
65276;BME280;51875;49.994;14.052;2024-01-10T05:57:44;99697.72;;;-11.38;100.00
65276;BME280;51875;49.994;14.052;2024-01-10T05:59:00;99693.69;;;-11.46;100.00
65276;BME280;51875;49.994;14.052;2024-01-10T06:00:17;99696.25;;;-11.24;100.00
65276;BME280;51875;49.994;14.052;2024-01-10T06:01:33;99694.13;;;-11.29;100.00
65276;BME280;51875;49.994;14.052;2024-01-10T06:02:52;99703.59;;;-11.70;100.00
65276;BME280;51875;49.994;14.052;2024-01-10T06:04:08;99697.59;;;-11.50;100.00
65276;BME280;51875;49.994;14.052;2024-01-10T06:05:24;99694.44;;;-11.47;100.00
65276;BME280;51875;49.994;14.052;2024-01-10T06:06:40;99702.34;;;-11.32;100.00
65276;BME280;51875;49.994;14.052;2024-01-10T06:07:56;99701.53;;;-11.53;100.00
65276;BME280;51875;49.994;14.052;2024-01-10T06:09:13;99696.34;;;-11.44;100.00
65276;BME280;51875;49.994;14.052;2024-01-10T06:10:29;99697.41;;;-11.30;100.00
65276;BME280;51875;49.994;14.052;2024-01-10T06:11:45;99700.44;;;-11.67;100.00
65276;BME280;51875;49.994;14.052;2024-01-10T06:13:01;99696.88;;;-11.59;100.00
65276;BME280;51875;49.994;14.052;2024-01-10T06:14:17;99705.09;;;-11.51;100.00
65276;BME280;51875;49.994;14.052;2024-01-10T06:15:33;99696.34;;;-11.44;100.00
65276;BME280;51875;49.994;14.052;2024-01-10T06:16:49;99699.88;;;-11.42;100.00
65276;BME280;51875;49.994;14.052;2024-01-10T06:18:05;99700.41;;;-11.57;100.00
65276;BME280;51875;49.994;14.052;2024-01-10T06:19:21;99691.94;;;-11.68;100.00
65276;BME280;51875;49.994;14.052;2024-01-10T06:20:37;99697.13;;;-11.56;100.00
65276;BME280;51875;49.994;14.052;2024-01-10T06:21:55;99693.53;;;-11.47;100.00
65276;BME280;51875;49.994;14.052;2024-01-10T06:23:13;99691.03;;;-11.47;100.00
65276;BME280;51875;49.994;14.052;2024-01-10T06:24:29;99689.91;;;-11.51;100.00
65276;BME280;51875;49.994;14.052;2024-01-10T06:25:45;99683.72;;;-11.44;100.00
65276;BME280;51875;49.994;14.052;2024-01-10T06:27:02;99691.91;;;-11.37;100.00
65276;BME280;51875;49.994;14.052;2024-01-10T06:28:18;99690.59;;;-11.31;100.00